sensor_id;sensor_type;location;lat;lon;timestamp;P1;durP1;ratioP1;P2;durP2;ratioP2
18754;SDS011;35061;47.664;9.166;2023-12-20T00:01:17;3.37;;;2.75;;
18754;SDS011;35061;47.664;9.166;2023-12-20T00:03:45;3.95;;;3.50;;
18754;SDS011;35061;47.664;9.166;2023-12-20T00:06:13;3.17;;;2.72;;
18754;SDS011;35061;47.664;9.166;2023-12-20T00:08:41;3.62;;;3.17;;
18754;SDS011;35061;47.664;9.166;2023-12-20T00:11:09;3.10;;;2.75;;
18754;SDS011;35061;47.664;9.166;2023-12-20T00:13:37;3.08;;;2.50;;
18754;SDS011;35061;47.664;9.166;2023-12-20T00:16:05;4.35;;;2.90;;
18754;SDS011;35061;47.664;9.166;2023-12-20T00:18:33;3.33;;;3.00;;
18754;SDS011;35061;47.664;9.166;2023-12-20T00:21:01;3.67;;;2.90;;
18754;SDS011;35061;47.664;9.166;2023-12-20T00:23:30;3.47;;;2.83;;
18754;SDS011;35061;47.664;9.166;2023-12-20T00:25:57;2.90;;;2.70;;
18754;SDS011;35061;47.664;9.166;2023-12-20T00:28:26;2.50;;;2.30;;
18754;SDS011;35061;47.664;9.166;2023-12-20T00:30:54;3.37;;;2.67;;
18754;SDS011;35061;47.664;9.166;2023-12-20T00:33:22;3.20;;;2.60;;
18754;SDS011;35061;47.664;9.166;2023-12-20T00:35:50;3.83;;;2.33;;
18754;SDS011;35061;47.664;9.166;2023-12-20T00:38:18;3.87;;;2.95;;
18754;SDS011;35061;47.664;9.166;2023-12-20T00:40:46;3.87;;;2.83;;
18754;SDS011;35061;47.664;9.166;2023-12-20T00:43:14;4.18;;;2.80;;
18754;SDS011;35061;47.664;9.166;2023-12-20T00:45:42;3.97;;;3.20;;
18754;SDS011;35061;47.664;9.166;2023-12-20T00:48:10;3.87;;;2.90;;
18754;SDS011;35061;47.664;9.166;2023-12-20T00:50:38;4.62;;;3.35;;
18754;SDS011;35061;47.664;9.166;2023-12-20T00:53:06;3.53;;;3.00;;
18754;SDS011;35061;47.664;9.166;2023-12-20T00:55:34;3.80;;;2.90;;
18754;SDS011;35061;47.664;9.166;2023-12-20T00:58:02;4.53;;;3.28;;
18754;SDS011;35061;47.664;9.166;2023-12-20T01:00:30;4.82;;;3.70;;
18754;SDS011;35061;47.664;9.166;2023-12-20T01:02:58;5.07;;;3.53;;
18754;SDS011;35061;47.664;9.166;2023-12-20T01:05:26;4.70;;;3.00;;
18754;SDS011;35061;47.664;9.166;2023-12-20T01:07:54;4.00;;;3.35;;
18754;SDS011;35061;47.664;9.166;2023-12-20T01:10:22;3.12;;;2.80;;
18754;SDS011;35061;47.664;9.166;2023-12-20T01:12:50;5.03;;;3.25;;
18754;SDS011;35061;47.664;9.166;2023-12-20T01:15:18;3.95;;;2.97;;
18754;SDS011;35061;47.664;9.166;2023-12-20T01:17:46;4.18;;;3.28;;
18754;SDS011;35061;47.664;9.166;2023-12-20T01:20:14;3.35;;;2.90;;
18754;SDS011;35061;47.664;9.166;2023-12-20T01:22:43;3.33;;;2.80;;
18754;SDS011;35061;47.664;9.166;2023-12-20T01:25:13;5.10;;;3.37;;
18754;SDS011;35061;47.664;9.166;2023-12-20T01:27:41;3.60;;;2.97;;
18754;SDS011;35061;47.664;9.166;2023-12-20T01:30:11;4.80;;;3.65;;
18754;SDS011;35061;47.664;9.166;2023-12-20T01:32:39;3.53;;;2.92;;
18754;SDS011;35061;47.664;9.166;2023-12-20T01:35:07;5.12;;;3.67;;
18754;SDS011;35061;47.664;9.166;2023-12-20T01:37:35;5.55;;;4.15;;
18754;SDS011;35061;47.664;9.166;2023-12-20T01:40:03;4.20;;;3.47;;
18754;SDS011;35061;47.664;9.166;2023-12-20T01:42:32;4.37;;;3.67;;
18754;SDS011;35061;47.664;9.166;2023-12-20T01:45:00;4.45;;;3.60;;
18754;SDS011;35061;47.664;9.166;2023-12-20T01:47:28;4.60;;;3.55;;
18754;SDS011;35061;47.664;9.166;2023-12-20T01:49:56;4.30;;;3.33;;
18754;SDS011;35061;47.664;9.166;2023-12-20T01:52:24;5.05;;;4.00;;
18754;SDS011;35061;47.664;9.166;2023-12-20T01:54:54;4.60;;;3.62;;
18754;SDS011;35061;47.664;9.166;2023-12-20T01:57:28;4.03;;;3.08;;
18754;SDS011;35061;47.664;9.166;2023-12-20T01:59:56;4.45;;;3.28;;
18754;SDS011;35061;47.664;9.166;2023-12-20T02:02:25;5.43;;;3.95;;
18754;SDS011;35061;47.664;9.166;2023-12-20T02:04:55;5.10;;;3.90;;
18754;SDS011;35061;47.664;9.166;2023-12-20T02:07:24;4.50;;;4.00;;
18754;SDS011;35061;47.664;9.166;2023-12-20T02:09:52;4.57;;;3.62;;
18754;SDS011;35061;47.664;9.166;2023-12-20T02:12:20;5.15;;;4.07;;
18754;SDS011;35061;47.664;9.166;2023-12-20T02:14:49;4.43;;;3.90;;
18754;SDS011;35061;47.664;9.166;2023-12-20T02:17:17;6.43;;;4.68;;
18754;SDS011;35061;47.664;9.166;2023-12-20T02:19:45;5.90;;;4.10;;
18754;SDS011;35061;47.664;9.166;2023-12-20T02:22:13;4.95;;;4.10;;
18754;SDS011;35061;47.664;9.166;2023-12-20T02:24:42;5.40;;;4.18;;
18754;SDS011;35061;47.664;9.166;2023-12-20T02:27:10;5.43;;;4.22;;
18754;SDS011;35061;47.664;9.166;2023-12-20T02:29:38;4.50;;;3.72;;
18754;SDS011;35061;47.664;9.166;2023-12-20T02:32:06;5.62;;;4.43;;
18754;SDS011;35061;47.664;9.166;2023-12-20T02:34:34;6.43;;;4.32;;
18754;SDS011;35061;47.664;9.166;2023-12-20T02:37:02;6.43;;;4.53;;
18754;SDS011;35061;47.664;9.166;2023-12-20T02:39:30;5.95;;;4.60;;
18754;SDS011;35061;47.664;9.166;2023-12-20T02:41:58;6.90;;;5.45;;
18754;SDS011;35061;47.664;9.166;2023-12-20T02:44:26;7.05;;;4.50;;
18754;SDS011;35061;47.664;9.166;2023-12-20T02:46:54;5.25;;;4.00;;
18754;SDS011;35061;47.664;9.166;2023-12-20T02:49:22;5.75;;;4.45;;
18754;SDS011;35061;47.664;9.166;2023-12-20T02:51:50;5.22;;;4.15;;
18754;SDS011;35061;47.664;9.166;2023-12-20T02:54:18;5.30;;;4.30;;
18754;SDS011;35061;47.664;9.166;2023-12-20T02:56:46;5.75;;;4.35;;
18754;SDS011;35061;47.664;9.166;2023-12-20T02:59:14;5.95;;;4.10;;
18754;SDS011;35061;47.664;9.166;2023-12-20T03:01:44;4.65;;;3.78;;
18754;SDS011;35061;47.664;9.166;2023-12-20T03:04:13;4.97;;;4.25;;
18754;SDS011;35061;47.664;9.166;2023-12-20T03:06:41;5.97;;;4.50;;
18754;SDS011;35061;47.664;9.166;2023-12-20T03:09:09;5.22;;;4.20;;
18754;SDS011;35061;47.664;9.166;2023-12-20T03:11:37;7.00;;;5.10;;
18754;SDS011;35061;47.664;9.166;2023-12-20T03:14:05;4.57;;;3.75;;
18754;SDS011;35061;47.664;9.166;2023-12-20T03:16:33;6.90;;;4.70;;
18754;SDS011;35061;47.664;9.166;2023-12-20T03:19:03;6.70;;;4.05;;
18754;SDS011;35061;47.664;9.166;2023-12-20T03:21:31;4.28;;;3.85;;
18754;SDS011;35061;47.664;9.166;2023-12-20T03:23:59;5.15;;;3.33;;
18754;SDS011;35061;47.664;9.166;2023-12-20T03:26:27;4.62;;;3.78;;
18754;SDS011;35061;47.664;9.166;2023-12-20T03:28:55;9.82;;;4.12;;
18754;SDS011;35061;47.664;9.166;2023-12-20T03:31:23;4.93;;;4.37;;
18754;SDS011;35061;47.664;9.166;2023-12-20T03:33:51;5.80;;;4.03;;
18754;SDS011;35061;47.664;9.166;2023-12-20T03:36:21;5.07;;;3.87;;
18754;SDS011;35061;47.664;9.166;2023-12-20T03:38:49;6.20;;;4.00;;
18754;SDS011;35061;47.664;9.166;2023-12-20T03:41:17;5.85;;;4.15;;
18754;SDS011;35061;47.664;9.166;2023-12-20T03:43:45;5.30;;;4.15;;
18754;SDS011;35061;47.664;9.166;2023-12-20T03:46:13;5.70;;;4.32;;
18754;SDS011;35061;47.664;9.166;2023-12-20T03:48:41;4.60;;;4.18;;
18754;SDS011;35061;47.664;9.166;2023-12-20T03:51:09;6.22;;;3.90;;
18754;SDS011;35061;47.664;9.166;2023-12-20T03:53:37;7.15;;;4.47;;
18754;SDS011;35061;47.664;9.166;2023-12-20T03:56:05;5.03;;;4.53;;
18754;SDS011;35061;47.664;9.166;2023-12-20T03:58:33;5.32;;;4.32;;
18754;SDS011;35061;47.664;9.166;2023-12-20T04:01:01;5.28;;;4.28;;
18754;SDS011;35061;47.664;9.166;2023-12-20T04:03:30;7.68;;;4.47;;
18754;SDS011;35061;47.664;9.166;2023-12-20T04:05:58;5.43;;;4.70;;
18754;SDS011;35061;47.664;9.166;2023-12-20T04:08:26;5.85;;;4.60;;
18754;SDS011;35061;47.664;9.166;2023-12-20T04:10:54;10.40;;;5.47;;
18754;SDS011;35061;47.664;9.166;2023-12-20T04:13:22;5.80;;;4.60;;
18754;SDS011;35061;47.664;9.166;2023-12-20T04:15:50;5.50;;;4.80;;
18754;SDS011;35061;47.664;9.166;2023-12-20T04:18:19;6.72;;;5.28;;
18754;SDS011;35061;47.664;9.166;2023-12-20T04:20:47;5.75;;;4.95;;
18754;SDS011;35061;47.664;9.166;2023-12-20T04:23:15;5.12;;;4.47;;
18754;SDS011;35061;47.664;9.166;2023-12-20T04:25:43;6.75;;;5.00;;
18754;SDS011;35061;47.664;9.166;2023-12-20T04:28:11;6.53;;;4.90;;
18754;SDS011;35061;47.664;9.166;2023-12-20T04:30:39;7.25;;;5.62;;
18754;SDS011;35061;47.664;9.166;2023-12-20T04:33:07;7.40;;;5.43;;
18754;SDS011;35061;47.664;9.166;2023-12-20T04:35:37;8.20;;;6.12;;
18754;SDS011;35061;47.664;9.166;2023-12-20T04:38:05;8.32;;;6.10;;
18754;SDS011;35061;47.664;9.166;2023-12-20T04:40:33;6.60;;;5.90;;
18754;SDS011;35061;47.664;9.166;2023-12-20T04:43:01;7.75;;;6.00;;
18754;SDS011;35061;47.664;9.166;2023-12-20T04:45:29;6.50;;;5.40;;
18754;SDS011;35061;47.664;9.166;2023-12-20T04:47:57;7.40;;;5.62;;
18754;SDS011;35061;47.664;9.166;2023-12-20T04:50:25;7.57;;;5.50;;
18754;SDS011;35061;47.664;9.166;2023-12-20T04:52:53;7.07;;;6.32;;
18754;SDS011;35061;47.664;9.166;2023-12-20T04:55:21;6.15;;;5.55;;
18754;SDS011;35061;47.664;9.166;2023-12-20T04:57:49;7.78;;;5.43;;
18754;SDS011;35061;47.664;9.166;2023-12-20T05:00:18;7.62;;;6.12;;
18754;SDS011;35061;47.664;9.166;2023-12-20T05:02:46;7.60;;;6.15;;
18754;SDS011;35061;47.664;9.166;2023-12-20T05:05:14;7.70;;;6.18;;
18754;SDS011;35061;47.664;9.166;2023-12-20T05:07:42;6.78;;;5.37;;
18754;SDS011;35061;47.664;9.166;2023-12-20T05:10:11;8.27;;;5.53;;
18754;SDS011;35061;47.664;9.166;2023-12-20T05:12:39;6.80;;;5.65;;
18754;SDS011;35061;47.664;9.166;2023-12-20T05:15:07;7.60;;;6.25;;
18754;SDS011;35061;47.664;9.166;2023-12-20T05:17:36;7.10;;;5.28;;
18754;SDS011;35061;47.664;9.166;2023-12-20T05:20:04;7.10;;;5.37;;
18754;SDS011;35061;47.664;9.166;2023-12-20T05:22:32;5.87;;;5.15;;
18754;SDS011;35061;47.664;9.166;2023-12-20T05:25:00;6.62;;;5.78;;
18754;SDS011;35061;47.664;9.166;2023-12-20T05:27:28;6.45;;;5.22;;
18754;SDS011;35061;47.664;9.166;2023-12-20T05:29:56;6.57;;;5.80;;
18754;SDS011;35061;47.664;9.166;2023-12-20T05:32:25;7.43;;;6.47;;
18754;SDS011;35061;47.664;9.166;2023-12-20T05:34:52;6.75;;;5.65;;
18754;SDS011;35061;47.664;9.166;2023-12-20T05:37:20;6.28;;;5.30;;
18754;SDS011;35061;47.664;9.166;2023-12-20T05:39:48;6.95;;;5.20;;
18754;SDS011;35061;47.664;9.166;2023-12-20T05:42:17;7.87;;;5.78;;
18754;SDS011;35061;47.664;9.166;2023-12-20T05:44:45;6.53;;;4.85;;
18754;SDS011;35061;47.664;9.166;2023-12-20T05:47:15;6.80;;;6.07;;
18754;SDS011;35061;47.664;9.166;2023-12-20T05:49:43;7.50;;;5.30;;
18754;SDS011;35061;47.664;9.166;2023-12-20T05:52:11;5.87;;;5.28;;
18754;SDS011;35061;47.664;9.166;2023-12-20T05:54:42;6.05;;;5.35;;
18754;SDS011;35061;47.664;9.166;2023-12-20T05:57:10;6.07;;;4.72;;
18754;SDS011;35061;47.664;9.166;2023-12-20T05:59:38;5.70;;;4.93;;
18754;SDS011;35061;47.664;9.166;2023-12-20T06:02:09;4.65;;;4.18;;
18754;SDS011;35061;47.664;9.166;2023-12-20T06:04:36;5.55;;;4.60;;
18754;SDS011;35061;47.664;9.166;2023-12-20T06:07:05;5.50;;;4.53;;
18754;SDS011;35061;47.664;9.166;2023-12-20T06:09:33;6.18;;;4.87;;
18754;SDS011;35061;47.664;9.166;2023-12-20T06:12:01;6.40;;;5.00;;
18754;SDS011;35061;47.664;9.166;2023-12-20T06:14:29;6.60;;;5.20;;
18754;SDS011;35061;47.664;9.166;2023-12-20T06:16:58;6.03;;;4.75;;
18754;SDS011;35061;47.664;9.166;2023-12-20T06:19:26;5.18;;;4.47;;
18754;SDS011;35061;47.664;9.166;2023-12-20T06:21:54;5.85;;;4.95;;
18754;SDS011;35061;47.664;9.166;2023-12-20T06:24:23;4.37;;;3.92;;
18754;SDS011;35061;47.664;9.166;2023-12-20T06:26:55;5.18;;;4.68;;
18754;SDS011;35061;47.664;9.166;2023-12-20T06:29:26;6.32;;;4.85;;
18754;SDS011;35061;47.664;9.166;2023-12-20T06:31:54;5.72;;;4.90;;
18754;SDS011;35061;47.664;9.166;2023-12-20T06:34:22;5.55;;;4.78;;
18754;SDS011;35061;47.664;9.166;2023-12-20T06:36:50;5.37;;;4.68;;
18754;SDS011;35061;47.664;9.166;2023-12-20T06:39:18;6.95;;;5.65;;
18754;SDS011;35061;47.664;9.166;2023-12-20T06:41:46;6.18;;;4.95;;
18754;SDS011;35061;47.664;9.166;2023-12-20T06:44:14;5.90;;;4.55;;
18754;SDS011;35061;47.664;9.166;2023-12-20T06:46:42;6.43;;;5.62;;
18754;SDS011;35061;47.664;9.166;2023-12-20T06:49:10;6.53;;;5.72;;
18754;SDS011;35061;47.664;9.166;2023-12-20T06:51:39;5.62;;;4.55;;
18754;SDS011;35061;47.664;9.166;2023-12-20T06:54:07;5.57;;;4.97;;
18754;SDS011;35061;47.664;9.166;2023-12-20T06:56:35;5.97;;;5.37;;
18754;SDS011;35061;47.664;9.166;2023-12-20T06:59:03;5.72;;;5.20;;
18754;SDS011;35061;47.664;9.166;2023-12-20T07:01:31;6.10;;;5.32;;
18754;SDS011;35061;47.664;9.166;2023-12-20T07:04:00;6.37;;;4.82;;
18754;SDS011;35061;47.664;9.166;2023-12-20T07:06:28;5.07;;;4.57;;
18754;SDS011;35061;47.664;9.166;2023-12-20T07:08:56;5.50;;;4.45;;
18754;SDS011;35061;47.664;9.166;2023-12-20T07:11:24;6.78;;;5.05;;
18754;SDS011;35061;47.664;9.166;2023-12-20T07:13:52;5.35;;;4.80;;
18754;SDS011;35061;47.664;9.166;2023-12-20T07:16:20;6.15;;;5.30;;
18754;SDS011;35061;47.664;9.166;2023-12-20T07:18:48;6.55;;;5.32;;
18754;SDS011;35061;47.664;9.166;2023-12-20T07:21:17;5.87;;;5.20;;
18754;SDS011;35061;47.664;9.166;2023-12-20T07:23:45;5.80;;;5.20;;
18754;SDS011;35061;47.664;9.166;2023-12-20T07:26:13;6.53;;;5.50;;
18754;SDS011;35061;47.664;9.166;2023-12-20T07:28:41;5.87;;;5.28;;
18754;SDS011;35061;47.664;9.166;2023-12-20T07:31:09;6.05;;;4.87;;
18754;SDS011;35061;47.664;9.166;2023-12-20T07:33:38;5.65;;;5.07;;
18754;SDS011;35061;47.664;9.166;2023-12-20T07:36:06;6.47;;;5.50;;
18754;SDS011;35061;47.664;9.166;2023-12-20T07:38:35;5.15;;;4.65;;
18754;SDS011;35061;47.664;9.166;2023-12-20T07:41:03;5.50;;;4.65;;
18754;SDS011;35061;47.664;9.166;2023-12-20T07:43:31;5.45;;;4.72;;
18754;SDS011;35061;47.664;9.166;2023-12-20T07:46:03;5.80;;;4.85;;
18754;SDS011;35061;47.664;9.166;2023-12-20T07:48:34;4.47;;;3.87;;
18754;SDS011;35061;47.664;9.166;2023-12-20T07:51:02;4.82;;;4.25;;
18754;SDS011;35061;47.664;9.166;2023-12-20T07:53:31;4.65;;;4.18;;
18754;SDS011;35061;47.664;9.166;2023-12-20T07:55:59;4.62;;;3.67;;
18754;SDS011;35061;47.664;9.166;2023-12-20T07:58:27;4.68;;;4.00;;
18754;SDS011;35061;47.664;9.166;2023-12-20T08:01:15;4.30;;;3.53;;
18754;SDS011;35061;47.664;9.166;2023-12-20T08:03:44;4.18;;;3.78;;
18754;SDS011;35061;47.664;9.166;2023-12-20T08:06:12;4.15;;;3.67;;
18754;SDS011;35061;47.664;9.166;2023-12-20T08:08:40;3.85;;;3.45;;
18754;SDS011;35061;47.664;9.166;2023-12-20T08:11:10;4.07;;;3.30;;
18754;SDS011;35061;47.664;9.166;2023-12-20T08:13:38;4.43;;;3.92;;
18754;SDS011;35061;47.664;9.166;2023-12-20T08:16:06;5.12;;;4.40;;
18754;SDS011;35061;47.664;9.166;2023-12-20T08:18:34;4.97;;;4.50;;
18754;SDS011;35061;47.664;9.166;2023-12-20T08:21:02;5.05;;;3.85;;
18754;SDS011;35061;47.664;9.166;2023-12-20T08:23:30;4.50;;;3.90;;
18754;SDS011;35061;47.664;9.166;2023-12-20T08:25:58;4.07;;;3.67;;
18754;SDS011;35061;47.664;9.166;2023-12-20T08:28:39;4.15;;;3.15;;
18754;SDS011;35061;47.664;9.166;2023-12-20T08:31:13;4.45;;;4.00;;
18754;SDS011;35061;47.664;9.166;2023-12-20T08:33:45;4.15;;;3.75;;
18754;SDS011;35061;47.664;9.166;2023-12-20T08:36:14;3.70;;;3.37;;
18754;SDS011;35061;47.664;9.166;2023-12-20T08:38:42;4.43;;;4.03;;
18754;SDS011;35061;47.664;9.166;2023-12-20T08:41:10;4.60;;;4.20;;
18754;SDS011;35061;47.664;9.166;2023-12-20T08:43:38;4.28;;;3.33;;
18754;SDS011;35061;47.664;9.166;2023-12-20T08:46:10;3.97;;;3.40;;
18754;SDS011;35061;47.664;9.166;2023-12-20T08:48:38;3.65;;;3.30;;
18754;SDS011;35061;47.664;9.166;2023-12-20T08:51:06;3.25;;;2.97;;
18754;SDS011;35061;47.664;9.166;2023-12-20T08:53:36;3.78;;;3.28;;
18754;SDS011;35061;47.664;9.166;2023-12-20T08:56:04;3.85;;;3.45;;
18754;SDS011;35061;47.664;9.166;2023-12-20T08:58:32;4.75;;;3.42;;
18754;SDS011;35061;47.664;9.166;2023-12-20T09:01:01;3.67;;;2.97;;
18754;SDS011;35061;47.664;9.166;2023-12-20T09:03:29;2.83;;;2.50;;
18754;SDS011;35061;47.664;9.166;2023-12-20T09:05:57;3.40;;;3.10;;
18754;SDS011;35061;47.664;9.166;2023-12-20T09:08:25;4.25;;;3.42;;
18754;SDS011;35061;47.664;9.166;2023-12-20T09:10:53;2.83;;;2.58;;
18754;SDS011;35061;47.664;9.166;2023-12-20T09:13:21;3.10;;;2.80;;
18754;SDS011;35061;47.664;9.166;2023-12-20T09:15:57;4.43;;;3.30;;
18754;SDS011;35061;47.664;9.166;2023-12-20T09:18:25;3.10;;;2.80;;
18754;SDS011;35061;47.664;9.166;2023-12-20T09:20:54;3.25;;;2.97;;
18754;SDS011;35061;47.664;9.166;2023-12-20T09:23:22;3.40;;;3.10;;
18754;SDS011;35061;47.664;9.166;2023-12-20T09:25:50;3.40;;;3.10;;
18754;SDS011;35061;47.664;9.166;2023-12-20T09:28:22;2.95;;;2.75;;
18754;SDS011;35061;47.664;9.166;2023-12-20T09:30:50;3.65;;;2.58;;
18754;SDS011;35061;47.664;9.166;2023-12-20T09:33:18;2.85;;;2.65;;
18754;SDS011;35061;47.664;9.166;2023-12-20T09:35:46;3.08;;;2.67;;
18754;SDS011;35061;47.664;9.166;2023-12-20T09:38:15;2.65;;;2.45;;
18754;SDS011;35061;47.664;9.166;2023-12-20T09:40:44;2.65;;;2.45;;
18754;SDS011;35061;47.664;9.166;2023-12-20T09:43:16;2.58;;;2.37;;
18754;SDS011;35061;47.664;9.166;2023-12-20T09:45:47;2.72;;;2.50;;
18754;SDS011;35061;47.664;9.166;2023-12-20T09:48:17;2.40;;;2.20;;
18754;SDS011;35061;47.664;9.166;2023-12-20T09:50:47;2.97;;;2.67;;
18754;SDS011;35061;47.664;9.166;2023-12-20T09:53:19;2.05;;;1.85;;
18754;SDS011;35061;47.664;9.166;2023-12-20T09:55:47;3.28;;;2.25;;
18754;SDS011;35061;47.664;9.166;2023-12-20T09:58:15;3.83;;;2.62;;
18754;SDS011;35061;47.664;9.166;2023-12-20T10:00:43;4.45;;;2.35;;
18754;SDS011;35061;47.664;9.166;2023-12-20T10:03:11;3.83;;;2.37;;
18754;SDS011;35061;47.664;9.166;2023-12-20T10:05:45;2.40;;;2.20;;
18754;SDS011;35061;47.664;9.166;2023-12-20T10:08:17;2.40;;;2.20;;
18754;SDS011;35061;47.664;9.166;2023-12-20T10:10:45;2.17;;;1.90;;
18754;SDS011;35061;47.664;9.166;2023-12-20T10:13:14;2.62;;;2.30;;
18754;SDS011;35061;47.664;9.166;2023-12-20T10:15:43;3.60;;;1.90;;
18754;SDS011;35061;47.664;9.166;2023-12-20T10:18:11;1.87;;;1.70;;
18754;SDS011;35061;47.664;9.166;2023-12-20T10:20:40;2.55;;;2.25;;
18754;SDS011;35061;47.664;9.166;2023-12-20T10:23:10;2.10;;;1.90;;
18754;SDS011;35061;47.664;9.166;2023-12-20T10:25:38;2.12;;;1.90;;
18754;SDS011;35061;47.664;9.166;2023-12-20T10:30:42;2.30;;;2.10;;
18754;SDS011;35061;47.664;9.166;2023-12-20T10:33:11;3.37;;;1.95;;
18754;SDS011;35061;47.664;9.166;2023-12-20T10:35:39;1.92;;;1.83;;
18754;SDS011;35061;47.664;9.166;2023-12-20T10:38:12;2.17;;;1.98;;
18754;SDS011;35061;47.664;9.166;2023-12-20T10:40:42;2.70;;;2.50;;
18754;SDS011;35061;47.664;9.166;2023-12-20T10:43:13;2.65;;;1.75;;
18754;SDS011;35061;47.664;9.166;2023-12-20T10:45:42;3.28;;;2.30;;
18754;SDS011;35061;47.664;9.166;2023-12-20T10:48:11;1.70;;;1.60;;
18754;SDS011;35061;47.664;9.166;2023-12-20T10:50:39;2.05;;;1.85;;
18754;SDS011;35061;47.664;9.166;2023-12-20T10:53:08;1.77;;;1.60;;
18754;SDS011;35061;47.664;9.166;2023-12-20T10:55:37;2.80;;;1.87;;
18754;SDS011;35061;47.664;9.166;2023-12-20T10:58:06;1.52;;;1.42;;
18754;SDS011;35061;47.664;9.166;2023-12-20T11:00:38;1.70;;;1.60;;
18754;SDS011;35061;47.664;9.166;2023-12-20T11:03:09;2.50;;;1.62;;
18754;SDS011;35061;47.664;9.166;2023-12-20T11:08:36;1.48;;;1.37;;
18754;SDS011;35061;47.664;9.166;2023-12-20T11:11:13;1.75;;;1.33;;
18754;SDS011;35061;47.664;9.166;2023-12-20T11:16:40;1.60;;;1.50;;
18754;SDS011;35061;47.664;9.166;2023-12-20T11:19:20;1.33;;;1.20;;
18754;SDS011;35061;47.664;9.166;2023-12-20T11:21:48;1.67;;;1.55;;
18754;SDS011;35061;47.664;9.166;2023-12-20T11:24:16;1.30;;;1.20;;
18754;SDS011;35061;47.664;9.166;2023-12-20T11:26:49;1.40;;;1.30;;
18754;SDS011;35061;47.664;9.166;2023-12-20T11:29:32;1.30;;;1.20;;
18754;SDS011;35061;47.664;9.166;2023-12-20T11:32:03;1.12;;;1.10;;
18754;SDS011;35061;47.664;9.166;2023-12-20T11:34:32;0.70;;;0.70;;
18754;SDS011;35061;47.664;9.166;2023-12-20T11:37:02;0.80;;;0.80;;
18754;SDS011;35061;47.664;9.166;2023-12-20T11:39:30;1.55;;;0.93;;
18754;SDS011;35061;47.664;9.166;2023-12-20T11:42:03;2.22;;;1.05;;
18754;SDS011;35061;47.664;9.166;2023-12-20T11:44:33;1.17;;;1.00;;
18754;SDS011;35061;47.664;9.166;2023-12-20T11:47:01;1.45;;;1.35;;
18754;SDS011;35061;47.664;9.166;2023-12-20T11:49:29;1.60;;;1.48;;
18754;SDS011;35061;47.664;9.166;2023-12-20T11:51:58;2.00;;;1.73;;
18754;SDS011;35061;47.664;9.166;2023-12-20T11:54:29;1.70;;;1.60;;
18754;SDS011;35061;47.664;9.166;2023-12-20T11:56:58;1.55;;;1.45;;
18754;SDS011;35061;47.664;9.166;2023-12-20T11:59:26;1.55;;;1.42;;
18754;SDS011;35061;47.664;9.166;2023-12-20T12:01:54;2.65;;;1.20;;
18754;SDS011;35061;47.664;9.166;2023-12-20T12:04:28;1.50;;;1.40;;
18754;SDS011;35061;47.664;9.166;2023-12-20T12:06:56;1.58;;;1.35;;
18754;SDS011;35061;47.664;9.166;2023-12-20T12:09:24;2.12;;;1.48;;
18754;SDS011;35061;47.664;9.166;2023-12-20T12:11:52;1.45;;;1.35;;
18754;SDS011;35061;47.664;9.166;2023-12-20T12:14:20;1.67;;;1.20;;
18754;SDS011;35061;47.664;9.166;2023-12-20T12:16:48;1.20;;;1.10;;
18754;SDS011;35061;47.664;9.166;2023-12-20T12:19:21;1.40;;;1.30;;
18754;SDS011;35061;47.664;9.166;2023-12-20T12:21:51;1.50;;;1.20;;
18754;SDS011;35061;47.664;9.166;2023-12-20T12:24:32;1.48;;;1.25;;
18754;SDS011;35061;47.664;9.166;2023-12-20T12:27:00;1.30;;;1.08;;
18754;SDS011;35061;47.664;9.166;2023-12-20T12:29:28;1.33;;;1.23;;
18754;SDS011;35061;47.664;9.166;2023-12-20T12:31:59;1.00;;;0.85;;
18754;SDS011;35061;47.664;9.166;2023-12-20T12:34:33;1.73;;;1.25;;
18754;SDS011;35061;47.664;9.166;2023-12-20T12:37:11;1.02;;;1.02;;
18754;SDS011;35061;47.664;9.166;2023-12-20T12:39:40;2.10;;;1.33;;
18754;SDS011;35061;47.664;9.166;2023-12-20T12:42:08;3.75;;;1.40;;
18754;SDS011;35061;47.664;9.166;2023-12-20T12:44:36;1.58;;;1.30;;
18754;SDS011;35061;47.664;9.166;2023-12-20T12:47:04;0.90;;;0.90;;
18754;SDS011;35061;47.664;9.166;2023-12-20T12:49:33;1.00;;;1.00;;
18754;SDS011;35061;47.664;9.166;2023-12-20T12:52:01;1.10;;;1.10;;
18754;SDS011;35061;47.664;9.166;2023-12-20T12:54:30;0.90;;;0.90;;
18754;SDS011;35061;47.664;9.166;2023-12-20T12:56:58;1.50;;;1.27;;
18754;SDS011;35061;47.664;9.166;2023-12-20T12:59:26;1.90;;;1.15;;
18754;SDS011;35061;47.664;9.166;2023-12-20T13:01:54;1.50;;;1.40;;
18754;SDS011;35061;47.664;9.166;2023-12-20T13:04:22;1.48;;;1.20;;
18754;SDS011;35061;47.664;9.166;2023-12-20T13:06:50;1.52;;;1.17;;
18754;SDS011;35061;47.664;9.166;2023-12-20T13:09:19;1.33;;;1.15;;
18754;SDS011;35061;47.664;9.166;2023-12-20T13:11:47;1.45;;;1.35;;
18754;SDS011;35061;47.664;9.166;2023-12-20T13:14:15;1.20;;;1.10;;
18754;SDS011;35061;47.664;9.166;2023-12-20T13:16:44;2.53;;;1.70;;
18754;SDS011;35061;47.664;9.166;2023-12-20T13:19:13;1.85;;;1.67;;
18754;SDS011;35061;47.664;9.166;2023-12-20T13:21:41;1.20;;;1.10;;
18754;SDS011;35061;47.664;9.166;2023-12-20T13:24:09;1.60;;;1.45;;
18754;SDS011;35061;47.664;9.166;2023-12-20T13:26:37;1.30;;;1.20;;
18754;SDS011;35061;47.664;9.166;2023-12-20T13:29:05;1.73;;;1.20;;
18754;SDS011;35061;47.664;9.166;2023-12-20T13:31:33;2.50;;;1.30;;
18754;SDS011;35061;47.664;9.166;2023-12-20T13:34:01;1.40;;;1.30;;
18754;SDS011;35061;47.664;9.166;2023-12-20T13:36:29;1.60;;;1.30;;
18754;SDS011;35061;47.664;9.166;2023-12-20T13:38:57;2.03;;;1.10;;
18754;SDS011;35061;47.664;9.166;2023-12-20T13:41:25;1.00;;;0.90;;
18754;SDS011;35061;47.664;9.166;2023-12-20T13:43:53;1.27;;;1.10;;
18754;SDS011;35061;47.664;9.166;2023-12-20T13:46:21;1.85;;;0.70;;
18754;SDS011;35061;47.664;9.166;2023-12-20T13:48:50;0.70;;;0.70;;
18754;SDS011;35061;47.664;9.166;2023-12-20T13:51:18;0.75;;;0.75;;
18754;SDS011;35061;47.664;9.166;2023-12-20T13:53:48;1.27;;;1.17;;
18754;SDS011;35061;47.664;9.166;2023-12-20T13:56:16;0.75;;;0.75;;
18754;SDS011;35061;47.664;9.166;2023-12-20T13:58:44;0.85;;;0.85;;
18754;SDS011;35061;47.664;9.166;2023-12-20T14:01:14;1.73;;;0.95;;
18754;SDS011;35061;47.664;9.166;2023-12-20T14:03:42;1.33;;;0.82;;
18754;SDS011;35061;47.664;9.166;2023-12-20T14:06:10;0.93;;;0.90;;
18754;SDS011;35061;47.664;9.166;2023-12-20T14:08:38;1.20;;;0.80;;
18754;SDS011;35061;47.664;9.166;2023-12-20T14:11:06;0.80;;;0.80;;
18754;SDS011;35061;47.664;9.166;2023-12-20T14:13:34;1.40;;;1.00;;
18754;SDS011;35061;47.664;9.166;2023-12-20T14:16:05;2.25;;;1.00;;
18754;SDS011;35061;47.664;9.166;2023-12-20T14:18:33;0.95;;;0.95;;
18754;SDS011;35061;47.664;9.166;2023-12-20T14:21:01;1.08;;;0.90;;
18754;SDS011;35061;47.664;9.166;2023-12-20T14:23:29;1.27;;;1.17;;
18754;SDS011;35061;47.664;9.166;2023-12-20T14:25:57;1.55;;;0.98;;
18754;SDS011;35061;47.664;9.166;2023-12-20T14:28:26;1.00;;;1.00;;
18754;SDS011;35061;47.664;9.166;2023-12-20T14:30:54;1.23;;;1.12;;
18754;SDS011;35061;47.664;9.166;2023-12-20T14:33:22;2.25;;;1.33;;
18754;SDS011;35061;47.664;9.166;2023-12-20T14:35:50;1.00;;;1.00;;
18754;SDS011;35061;47.664;9.166;2023-12-20T14:38:18;1.37;;;1.27;;
18754;SDS011;35061;47.664;9.166;2023-12-20T14:40:47;1.95;;;1.00;;
18754;SDS011;35061;47.664;9.166;2023-12-20T14:43:15;1.58;;;1.25;;
18754;SDS011;35061;47.664;9.166;2023-12-20T14:45:44;2.80;;;1.15;;
18754;SDS011;35061;47.664;9.166;2023-12-20T14:48:12;1.30;;;1.00;;
18754;SDS011;35061;47.664;9.166;2023-12-20T14:50:40;1.58;;;1.02;;
18754;SDS011;35061;47.664;9.166;2023-12-20T14:53:08;0.70;;;0.70;;
18754;SDS011;35061;47.664;9.166;2023-12-20T14:55:36;1.33;;;0.98;;
18754;SDS011;35061;47.664;9.166;2023-12-20T14:58:04;1.92;;;1.20;;
18754;SDS011;35061;47.664;9.166;2023-12-20T15:00:32;2.28;;;1.20;;
18754;SDS011;35061;47.664;9.166;2023-12-20T15:03:01;1.25;;;0.90;;
18754;SDS011;35061;47.664;9.166;2023-12-20T15:05:31;3.30;;;1.35;;